sensor_id;sensor_type;location;lat;lon;timestamp;temperature;humidity
10390;DHT22;5241;47.830;12.972;2023-12-20T00:02:13;1.70;99.90
10390;DHT22;5241;47.830;12.972;2023-12-20T00:04:39;1.60;99.90
10390;DHT22;5241;47.830;12.972;2023-12-20T00:07:04;1.60;99.90
10390;DHT22;5241;47.830;12.972;2023-12-20T00:09:30;1.50;99.90
10390;DHT22;5241;47.830;12.972;2023-12-20T00:11:55;1.50;99.90
10390;DHT22;5241;47.830;12.972;2023-12-20T00:14:21;1.50;99.90
10390;DHT22;5241;47.830;12.972;2023-12-20T00:16:47;1.40;99.90
10390;DHT22;5241;47.830;12.972;2023-12-20T00:19:12;1.30;99.90
10390;DHT22;5241;47.830;12.972;2023-12-20T00:21:38;1.30;99.90
10390;DHT22;5241;47.830;12.972;2023-12-20T00:24:04;1.40;99.90
10390;DHT22;5241;47.830;12.972;2023-12-20T00:26:29;1.40;99.90
10390;DHT22;5241;47.830;12.972;2023-12-20T00:28:55;1.30;99.90
10390;DHT22;5241;47.830;12.972;2023-12-20T00:31:20;1.20;99.90
10390;DHT22;5241;47.830;12.972;2023-12-20T00:33:46;1.30;99.90
10390;DHT22;5241;47.830;12.972;2023-12-20T00:36:12;1.30;99.90
10390;DHT22;5241;47.830;12.972;2023-12-20T00:38:38;1.10;99.90
10390;DHT22;5241;47.830;12.972;2023-12-20T00:41:03;1.00;99.90
10390;DHT22;5241;47.830;12.972;2023-12-20T00:43:29;1.00;99.90
10390;DHT22;5241;47.830;12.972;2023-12-20T00:45:54;1.00;99.90
10390;DHT22;5241;47.830;12.972;2023-12-20T00:48:21;0.80;99.90
10390;DHT22;5241;47.830;12.972;2023-12-20T00:50:46;1.00;99.90
10390;DHT22;5241;47.830;12.972;2023-12-20T00:53:12;0.80;99.90
10390;DHT22;5241;47.830;12.972;2023-12-20T00:55:37;0.70;99.90
10390;DHT22;5241;47.830;12.972;2023-12-20T00:58:03;0.80;99.90
10390;DHT22;5241;47.830;12.972;2023-12-20T01:00:28;0.90;99.90
10390;DHT22;5241;47.830;12.972;2023-12-20T01:02:54;0.80;99.90
10390;DHT22;5241;47.830;12.972;2023-12-20T01:05:19;0.90;99.90
10390;DHT22;5241;47.830;12.972;2023-12-20T01:07:48;0.80;99.90
10390;DHT22;5241;47.830;12.972;2023-12-20T01:10:14;0.80;99.90
10390;DHT22;5241;47.830;12.972;2023-12-20T01:12:39;1.00;99.90
10390;DHT22;5241;47.830;12.972;2023-12-20T01:15:05;1.00;99.90
10390;DHT22;5241;47.830;12.972;2023-12-20T01:17:31;1.10;99.90
10390;DHT22;5241;47.830;12.972;2023-12-20T01:19:56;1.20;99.90
10390;DHT22;5241;47.830;12.972;2023-12-20T01:22:22;1.40;99.90
10390;DHT22;5241;47.830;12.972;2023-12-20T01:24:48;1.60;99.90
10390;DHT22;5241;47.830;12.972;2023-12-20T01:27:13;1.80;99.90
10390;DHT22;5241;47.830;12.972;2023-12-20T01:29:39;1.80;99.90
10390;DHT22;5241;47.830;12.972;2023-12-20T01:32:05;1.70;99.90
10390;DHT22;5241;47.830;12.972;2023-12-20T01:34:30;1.70;99.90
10390;DHT22;5241;47.830;12.972;2023-12-20T01:36:56;1.60;99.90
10390;DHT22;5241;47.830;12.972;2023-12-20T01:39:21;1.40;99.90
10390;DHT22;5241;47.830;12.972;2023-12-20T01:41:47;1.30;99.90
10390;DHT22;5241;47.830;12.972;2023-12-20T01:44:12;1.20;99.90
10390;DHT22;5241;47.830;12.972;2023-12-20T01:46:38;1.20;99.90
10390;DHT22;5241;47.830;12.972;2023-12-20T01:49:04;1.20;99.90
10390;DHT22;5241;47.830;12.972;2023-12-20T01:51:29;1.20;99.90
10390;DHT22;5241;47.830;12.972;2023-12-20T01:53:57;1.30;99.90
10390;DHT22;5241;47.830;12.972;2023-12-20T01:56:23;1.60;99.90
10390;DHT22;5241;47.830;12.972;2023-12-20T01:58:49;1.70;99.90
10390;DHT22;5241;47.830;12.972;2023-12-20T02:01:15;1.90;99.90
10390;DHT22;5241;47.830;12.972;2023-12-20T02:03:42;1.90;99.90
10390;DHT22;5241;47.830;12.972;2023-12-20T02:06:08;1.90;99.90
10390;DHT22;5241;47.830;12.972;2023-12-20T02:08:34;1.90;99.90
10390;DHT22;5241;47.830;12.972;2023-12-20T02:11:00;1.90;99.90
10390;DHT22;5241;47.830;12.972;2023-12-20T02:13:25;1.90;99.90
10390;DHT22;5241;47.830;12.972;2023-12-20T02:15:52;2.00;99.90
10390;DHT22;5241;47.830;12.972;2023-12-20T02:18:18;2.10;99.90
10390;DHT22;5241;47.830;12.972;2023-12-20T02:20:43;2.30;99.90
10390;DHT22;5241;47.830;12.972;2023-12-20T02:23:09;2.30;99.90
10390;DHT22;5241;47.830;12.972;2023-12-20T02:25:34;2.40;99.90
10390;DHT22;5241;47.830;12.972;2023-12-20T02:28:01;2.30;99.90
10390;DHT22;5241;47.830;12.972;2023-12-20T02:30:26;2.40;99.90
10390;DHT22;5241;47.830;12.972;2023-12-20T02:32:52;2.40;99.90
10390;DHT22;5241;47.830;12.972;2023-12-20T02:35:18;2.40;99.90
10390;DHT22;5241;47.830;12.972;2023-12-20T02:37:44;2.40;99.90
10390;DHT22;5241;47.830;12.972;2023-12-20T02:40:09;2.30;99.90
10390;DHT22;5241;47.830;12.972;2023-12-20T02:42:35;2.40;99.90
10390;DHT22;5241;47.830;12.972;2023-12-20T02:45:01;2.40;99.90
10390;DHT22;5241;47.830;12.972;2023-12-20T02:47:27;2.40;99.90
10390;DHT22;5241;47.830;12.972;2023-12-20T02:49:52;2.40;99.90
10390;DHT22;5241;47.830;12.972;2023-12-20T02:52:18;2.40;99.90
10390;DHT22;5241;47.830;12.972;2023-12-20T02:54:44;2.40;99.90
10390;DHT22;5241;47.830;12.972;2023-12-20T02:57:10;2.50;99.90
10390;DHT22;5241;47.830;12.972;2023-12-20T02:59:35;2.70;99.90
10390;DHT22;5241;47.830;12.972;2023-12-20T03:02:01;2.90;99.90
10390;DHT22;5241;47.830;12.972;2023-12-20T03:04:26;3.00;99.90
10390;DHT22;5241;47.830;12.972;2023-12-20T03:06:52;3.00;99.90
10390;DHT22;5241;47.830;12.972;2023-12-20T03:09:17;3.10;99.90
10390;DHT22;5241;47.830;12.972;2023-12-20T03:11:43;3.20;99.90
10390;DHT22;5241;47.830;12.972;2023-12-20T03:14:08;3.20;99.90
10390;DHT22;5241;47.830;12.972;2023-12-20T03:16:34;3.10;99.90
10390;DHT22;5241;47.830;12.972;2023-12-20T03:18:59;3.10;99.90
10390;DHT22;5241;47.830;12.972;2023-12-20T03:21:25;3.10;99.90
10390;DHT22;5241;47.830;12.972;2023-12-20T03:23:50;3.00;99.90
10390;DHT22;5241;47.830;12.972;2023-12-20T03:26:16;2.80;99.90
10390;DHT22;5241;47.830;12.972;2023-12-20T03:28:41;2.70;99.90
10390;DHT22;5241;47.830;12.972;2023-12-20T03:31:07;2.70;99.90
10390;DHT22;5241;47.830;12.972;2023-12-20T03:33:34;2.80;99.90
10390;DHT22;5241;47.830;12.972;2023-12-20T03:36:00;2.80;99.90
10390;DHT22;5241;47.830;12.972;2023-12-20T03:38:25;2.90;99.90
10390;DHT22;5241;47.830;12.972;2023-12-20T03:40:51;3.00;99.90
10390;DHT22;5241;47.830;12.972;2023-12-20T03:43:16;3.10;99.90
10390;DHT22;5241;47.830;12.972;2023-12-20T03:45:42;3.10;99.90
10390;DHT22;5241;47.830;12.972;2023-12-20T03:48:08;3.20;99.90
10390;DHT22;5241;47.830;12.972;2023-12-20T03:50:34;3.20;99.90
10390;DHT22;5241;47.830;12.972;2023-12-20T03:53:00;3.30;99.90
10390;DHT22;5241;47.830;12.972;2023-12-20T03:55:26;3.30;99.90
10390;DHT22;5241;47.830;12.972;2023-12-20T03:57:51;3.40;99.90
10390;DHT22;5241;47.830;12.972;2023-12-20T04:00:17;3.40;99.90
10390;DHT22;5241;47.830;12.972;2023-12-20T04:02:43;3.30;99.90
10390;DHT22;5241;47.830;12.972;2023-12-20T04:05:09;3.20;99.90
10390;DHT22;5241;47.830;12.972;2023-12-20T04:07:36;3.30;99.90
10390;DHT22;5241;47.830;12.972;2023-12-20T04:10:02;3.40;99.90
10390;DHT22;5241;47.830;12.972;2023-12-20T04:12:29;3.40;99.90
10390;DHT22;5241;47.830;12.972;2023-12-20T04:14:54;3.40;99.90
10390;DHT22;5241;47.830;12.972;2023-12-20T04:17:20;3.40;99.90
10390;DHT22;5241;47.830;12.972;2023-12-20T04:19:48;3.40;99.90
10390;DHT22;5241;47.830;12.972;2023-12-20T04:22:13;3.50;99.90
10390;DHT22;5241;47.830;12.972;2023-12-20T04:24:39;3.60;99.90
10390;DHT22;5241;47.830;12.972;2023-12-20T04:27:04;3.50;99.90
10390;DHT22;5241;47.830;12.972;2023-12-20T04:29:30;3.50;99.90
10390;DHT22;5241;47.830;12.972;2023-12-20T04:31:55;3.50;99.90
10390;DHT22;5241;47.830;12.972;2023-12-20T04:34:22;3.50;99.90
10390;DHT22;5241;47.830;12.972;2023-12-20T04:36:48;3.50;99.90
10390;DHT22;5241;47.830;12.972;2023-12-20T04:39:13;3.50;99.90
10390;DHT22;5241;47.830;12.972;2023-12-20T04:41:40;3.40;99.90
10390;DHT22;5241;47.830;12.972;2023-12-20T04:44:06;3.60;99.90
10390;DHT22;5241;47.830;12.972;2023-12-20T04:46:31;3.70;99.90
10390;DHT22;5241;47.830;12.972;2023-12-20T04:48:57;3.70;99.90
10390;DHT22;5241;47.830;12.972;2023-12-20T04:51:23;3.70;99.90
10390;DHT22;5241;47.830;12.972;2023-12-20T04:53:48;3.80;99.90
10390;DHT22;5241;47.830;12.972;2023-12-20T04:56:14;3.80;99.90
10390;DHT22;5241;47.830;12.972;2023-12-20T04:58:39;3.70;99.90
10390;DHT22;5241;47.830;12.972;2023-12-20T05:01:09;3.60;99.90
10390;DHT22;5241;47.830;12.972;2023-12-20T05:03:34;3.70;99.90
10390;DHT22;5241;47.830;12.972;2023-12-20T05:06:00;3.80;99.90
10390;DHT22;5241;47.830;12.972;2023-12-20T05:08:26;3.90;99.90
10390;DHT22;5241;47.830;12.972;2023-12-20T05:10:56;3.90;99.90
10390;DHT22;5241;47.830;12.972;2023-12-20T05:13:22;3.90;99.90
10390;DHT22;5241;47.830;12.972;2023-12-20T05:15:47;3.80;99.90
10390;DHT22;5241;47.830;12.972;2023-12-20T05:18:13;3.70;99.90
10390;DHT22;5241;47.830;12.972;2023-12-20T05:20:39;3.60;99.90
10390;DHT22;5241;47.830;12.972;2023-12-20T05:23:05;3.60;99.90
10390;DHT22;5241;47.830;12.972;2023-12-20T05:25:31;3.60;99.90
10390;DHT22;5241;47.830;12.972;2023-12-20T05:27:56;3.70;99.90
10390;DHT22;5241;47.830;12.972;2023-12-20T05:30:22;4.00;99.90
10390;DHT22;5241;47.830;12.972;2023-12-20T05:32:48;4.00;99.90
10390;DHT22;5241;47.830;12.972;2023-12-20T05:35:14;4.20;99.90
10390;DHT22;5241;47.830;12.972;2023-12-20T05:37:40;5.10;99.90
10390;DHT22;5241;47.830;12.972;2023-12-20T05:40:06;5.60;99.90
10390;DHT22;5241;47.830;12.972;2023-12-20T05:42:35;5.80;99.90
10390;DHT22;5241;47.830;12.972;2023-12-20T05:45:01;5.80;99.90
10390;DHT22;5241;47.830;12.972;2023-12-20T05:47:26;6.10;99.90
10390;DHT22;5241;47.830;12.972;2023-12-20T05:49:52;6.00;99.90
10390;DHT22;5241;47.830;12.972;2023-12-20T05:52:18;5.90;99.90
10390;DHT22;5241;47.830;12.972;2023-12-20T05:54:43;5.90;99.90
10390;DHT22;5241;47.830;12.972;2023-12-20T05:57:09;5.70;99.90
10390;DHT22;5241;47.830;12.972;2023-12-20T05:59:34;5.70;99.90
10390;DHT22;5241;47.830;12.972;2023-12-20T06:02:00;5.60;99.90
10390;DHT22;5241;47.830;12.972;2023-12-20T06:04:25;5.60;99.90
10390;DHT22;5241;47.830;12.972;2023-12-20T06:06:51;5.50;99.90
10390;DHT22;5241;47.830;12.972;2023-12-20T06:09:16;5.50;99.90
10390;DHT22;5241;47.830;12.972;2023-12-20T06:11:42;5.50;99.90
10390;DHT22;5241;47.830;12.972;2023-12-20T06:14:08;5.50;99.90
10390;DHT22;5241;47.830;12.972;2023-12-20T06:16:33;5.70;99.90
10390;DHT22;5241;47.830;12.972;2023-12-20T06:18:59;5.60;99.90
10390;DHT22;5241;47.830;12.972;2023-12-20T06:21:24;5.70;99.90
10390;DHT22;5241;47.830;12.972;2023-12-20T06:23:50;5.90;99.90
10390;DHT22;5241;47.830;12.972;2023-12-20T06:26:15;5.90;99.90
10390;DHT22;5241;47.830;12.972;2023-12-20T06:28:41;6.00;99.90
10390;DHT22;5241;47.830;12.972;2023-12-20T06:31:06;6.10;99.90
10390;DHT22;5241;47.830;12.972;2023-12-20T06:33:32;6.20;99.90
10390;DHT22;5241;47.830;12.972;2023-12-20T06:35:57;6.30;99.90
10390;DHT22;5241;47.830;12.972;2023-12-20T06:38:23;6.20;99.90
10390;DHT22;5241;47.830;12.972;2023-12-20T06:40:49;6.20;99.90
10390;DHT22;5241;47.830;12.972;2023-12-20T06:43:14;6.30;99.90
10390;DHT22;5241;47.830;12.972;2023-12-20T06:45:40;6.30;99.90
10390;DHT22;5241;47.830;12.972;2023-12-20T06:48:06;6.40;99.90
10390;DHT22;5241;47.830;12.972;2023-12-20T06:50:31;6.40;99.90
10390;DHT22;5241;47.830;12.972;2023-12-20T06:52:57;6.30;99.90
10390;DHT22;5241;47.830;12.972;2023-12-20T06:55:22;6.30;99.90
10390;DHT22;5241;47.830;12.972;2023-12-20T06:57:48;6.30;99.90
10390;DHT22;5241;47.830;12.972;2023-12-20T07:00:14;6.30;99.90
10390;DHT22;5241;47.830;12.972;2023-12-20T07:02:40;6.30;99.90
10390;DHT22;5241;47.830;12.972;2023-12-20T07:05:06;6.20;99.90
10390;DHT22;5241;47.830;12.972;2023-12-20T07:07:31;6.20;99.90
10390;DHT22;5241;47.830;12.972;2023-12-20T07:09:57;6.10;99.90
10390;DHT22;5241;47.830;12.972;2023-12-20T07:12:22;6.10;99.90
10390;DHT22;5241;47.830;12.972;2023-12-20T07:14:48;6.10;99.90
10390;DHT22;5241;47.830;12.972;2023-12-20T07:17:14;6.10;99.90
10390;DHT22;5241;47.830;12.972;2023-12-20T07:19:41;6.00;99.90
10390;DHT22;5241;47.830;12.972;2023-12-20T07:22:07;6.00;99.90
10390;DHT22;5241;47.830;12.972;2023-12-20T07:24:33;5.90;99.90
10390;DHT22;5241;47.830;12.972;2023-12-20T07:27:01;6.00;99.90
10390;DHT22;5241;47.830;12.972;2023-12-20T07:29:27;5.90;99.90
10390;DHT22;5241;47.830;12.972;2023-12-20T07:31:53;5.90;99.90
10390;DHT22;5241;47.830;12.972;2023-12-20T07:34:20;5.90;99.90
10390;DHT22;5241;47.830;12.972;2023-12-20T07:36:46;5.80;99.90
10390;DHT22;5241;47.830;12.972;2023-12-20T07:39:11;5.80;99.90
10390;DHT22;5241;47.830;12.972;2023-12-20T07:41:37;5.80;99.90
10390;DHT22;5241;47.830;12.972;2023-12-20T07:44:03;5.80;99.90
10390;DHT22;5241;47.830;12.972;2023-12-20T07:46:29;5.80;99.90
10390;DHT22;5241;47.830;12.972;2023-12-20T07:48:55;5.80;99.90
10390;DHT22;5241;47.830;12.972;2023-12-20T07:51:20;5.80;99.90
10390;DHT22;5241;47.830;12.972;2023-12-20T07:53:46;5.70;99.90
10390;DHT22;5241;47.830;12.972;2023-12-20T07:56:18;5.70;99.90
10390;DHT22;5241;47.830;12.972;2023-12-20T07:58:45;5.70;99.90
10390;DHT22;5241;47.830;12.972;2023-12-20T08:01:11;5.60;99.90
10390;DHT22;5241;47.830;12.972;2023-12-20T08:03:37;5.60;99.90
10390;DHT22;5241;47.830;12.972;2023-12-20T08:06:03;5.60;99.90
10390;DHT22;5241;47.830;12.972;2023-12-20T08:08:29;5.70;99.90
10390;DHT22;5241;47.830;12.972;2023-12-20T08:10:54;5.60;99.90
10390;DHT22;5241;47.830;12.972;2023-12-20T08:13:20;5.60;99.90
10390;DHT22;5241;47.830;12.972;2023-12-20T08:15:50;5.60;99.90
10390;DHT22;5241;47.830;12.972;2023-12-20T08:18:15;5.60;99.90
10390;DHT22;5241;47.830;12.972;2023-12-20T08:20:41;5.60;99.90
10390;DHT22;5241;47.830;12.972;2023-12-20T08:23:06;5.60;99.90
10390;DHT22;5241;47.830;12.972;2023-12-20T08:25:32;5.60;99.90
10390;DHT22;5241;47.830;12.972;2023-12-20T08:27:57;5.60;99.90
10390;DHT22;5241;47.830;12.972;2023-12-20T08:30:23;5.60;99.90
10390;DHT22;5241;47.830;12.972;2023-12-20T08:32:49;5.70;99.90
10390;DHT22;5241;47.830;12.972;2023-12-20T08:35:14;5.70;99.90
10390;DHT22;5241;47.830;12.972;2023-12-20T08:37:40;5.70;99.90
10390;DHT22;5241;47.830;12.972;2023-12-20T08:40:06;5.70;99.90
10390;DHT22;5241;47.830;12.972;2023-12-20T08:42:32;5.80;99.90
10390;DHT22;5241;47.830;12.972;2023-12-20T08:44:58;5.70;99.90
10390;DHT22;5241;47.830;12.972;2023-12-20T08:47:26;5.70;99.90
10390;DHT22;5241;47.830;12.972;2023-12-20T08:49:52;5.70;99.90
10390;DHT22;5241;47.830;12.972;2023-12-20T08:52:23;5.70;99.90
10390;DHT22;5241;47.830;12.972;2023-12-20T08:54:51;5.70;99.90
10390;DHT22;5241;47.830;12.972;2023-12-20T08:57:20;5.70;99.90
10390;DHT22;5241;47.830;12.972;2023-12-20T08:59:47;5.70;99.90
10390;DHT22;5241;47.830;12.972;2023-12-20T09:02:13;5.70;99.90
10390;DHT22;5241;47.830;12.972;2023-12-20T09:04:39;5.70;99.90
10390;DHT22;5241;47.830;12.972;2023-12-20T09:07:05;5.70;99.90
10390;DHT22;5241;47.830;12.972;2023-12-20T09:09:30;5.60;99.90
10390;DHT22;5241;47.830;12.972;2023-12-20T09:11:57;5.70;99.90
10390;DHT22;5241;47.830;12.972;2023-12-20T09:14:23;5.60;99.90
10390;DHT22;5241;47.830;12.972;2023-12-20T09:16:49;5.60;99.90
10390;DHT22;5241;47.830;12.972;2023-12-20T09:19:16;5.60;99.90
10390;DHT22;5241;47.830;12.972;2023-12-20T09:21:42;5.70;99.90
10390;DHT22;5241;47.830;12.972;2023-12-20T09:24:08;5.70;99.90
10390;DHT22;5241;47.830;12.972;2023-12-20T09:26:34;5.70;99.90
10390;DHT22;5241;47.830;12.972;2023-12-20T09:29:00;5.80;99.90
10390;DHT22;5241;47.830;12.972;2023-12-20T09:31:25;5.80;99.90
10390;DHT22;5241;47.830;12.972;2023-12-20T09:33:51;5.70;99.90
10390;DHT22;5241;47.830;12.972;2023-12-20T09:36:16;5.80;99.90
10390;DHT22;5241;47.830;12.972;2023-12-20T09:38:42;5.80;99.90
10390;DHT22;5241;47.830;12.972;2023-12-20T09:41:07;5.90;99.90
10390;DHT22;5241;47.830;12.972;2023-12-20T09:43:37;5.90;99.90
10390;DHT22;5241;47.830;12.972;2023-12-20T09:46:05;5.90;99.90
10390;DHT22;5241;47.830;12.972;2023-12-20T09:48:31;5.90;99.90
10390;DHT22;5241;47.830;12.972;2023-12-20T09:50:58;6.00;99.90
10390;DHT22;5241;47.830;12.972;2023-12-20T09:53:25;6.00;99.90
10390;DHT22;5241;47.830;12.972;2023-12-20T09:55:58;6.00;99.90
10390;DHT22;5241;47.830;12.972;2023-12-20T09:58:25;6.00;99.90
10390;DHT22;5241;47.830;12.972;2023-12-20T10:00:51;6.10;99.90
10390;DHT22;5241;47.830;12.972;2023-12-20T10:03:21;6.10;99.90
10390;DHT22;5241;47.830;12.972;2023-12-20T10:05:52;6.20;99.90
10390;DHT22;5241;47.830;12.972;2023-12-20T10:08:21;6.20;99.90
10390;DHT22;5241;47.830;12.972;2023-12-20T10:10:46;6.20;99.90
10390;DHT22;5241;47.830;12.972;2023-12-20T10:13:12;6.20;99.90
10390;DHT22;5241;47.830;12.972;2023-12-20T10:15:38;6.30;99.90
10390;DHT22;5241;47.830;12.972;2023-12-20T10:18:04;6.20;99.90
10390;DHT22;5241;47.830;12.972;2023-12-20T10:20:31;6.20;99.90
10390;DHT22;5241;47.830;12.972;2023-12-20T10:22:58;6.10;99.90
10390;DHT22;5241;47.830;12.972;2023-12-20T10:25:24;6.10;99.90
10390;DHT22;5241;47.830;12.972;2023-12-20T10:27:51;6.10;99.90
10390;DHT22;5241;47.830;12.972;2023-12-20T10:30:33;6.10;99.90
10390;DHT22;5241;47.830;12.972;2023-12-20T10:32:59;6.20;99.90
10390;DHT22;5241;47.830;12.972;2023-12-20T10:35:24;6.20;99.90
10390;DHT22;5241;47.830;12.972;2023-12-20T10:37:55;6.20;99.90
10390;DHT22;5241;47.830;12.972;2023-12-20T10:40:21;6.30;99.90
10390;DHT22;5241;47.830;12.972;2023-12-20T10:42:47;6.20;99.90
10390;DHT22;5241;47.830;12.972;2023-12-20T10:45:13;6.20;99.90
10390;DHT22;5241;47.830;12.972;2023-12-20T10:47:41;6.10;99.90
10390;DHT22;5241;47.830;12.972;2023-12-20T10:50:07;6.10;99.90
10390;DHT22;5241;47.830;12.972;2023-12-20T10:52:34;6.00;99.90
10390;DHT22;5241;47.830;12.972;2023-12-20T10:55:01;6.00;99.90
10390;DHT22;5241;47.830;12.972;2023-12-20T10:57:27;6.00;99.90
10390;DHT22;5241;47.830;12.972;2023-12-20T10:59:53;6.00;99.90
10390;DHT22;5241;47.830;12.972;2023-12-20T11:02:19;6.00;99.90
10390;DHT22;5241;47.830;12.972;2023-12-20T11:04:56;6.00;99.90
10390;DHT22;5241;47.830;12.972;2023-12-20T11:07:41;6.00;99.90
10390;DHT22;5241;47.830;12.972;2023-12-20T11:10:20;6.10;99.90
10390;DHT22;5241;47.830;12.972;2023-12-20T11:13:23;6.10;99.90
10390;DHT22;5241;47.830;12.972;2023-12-20T11:15:50;6.20;99.90
10390;DHT22;5241;47.830;12.972;2023-12-20T11:18:16;6.30;99.90
10390;DHT22;5241;47.830;12.972;2023-12-20T11:20:42;6.30;99.90
10390;DHT22;5241;47.830;12.972;2023-12-20T11:23:08;6.20;99.90
10390;DHT22;5241;47.830;12.972;2023-12-20T11:28:14;6.30;99.90
10390;DHT22;5241;47.830;12.972;2023-12-20T11:33:08;6.20;99.90
10390;DHT22;5241;47.830;12.972;2023-12-20T11:35:34;6.30;99.90
10390;DHT22;5241;47.830;12.972;2023-12-20T11:38:02;6.30;99.90
10390;DHT22;5241;47.830;12.972;2023-12-20T11:40:27;6.20;99.90
10390;DHT22;5241;47.830;12.972;2023-12-20T11:42:53;6.40;99.90
10390;DHT22;5241;47.830;12.972;2023-12-20T11:45:24;6.40;99.90
10390;DHT22;5241;47.830;12.972;2023-12-20T11:47:51;6.50;99.90
10390;DHT22;5241;47.830;12.972;2023-12-20T11:50:17;6.50;99.90
10390;DHT22;5241;47.830;12.972;2023-12-20T11:52:43;6.50;99.90
10390;DHT22;5241;47.830;12.972;2023-12-20T11:55:09;6.40;99.90
10390;DHT22;5241;47.830;12.972;2023-12-20T11:57:36;6.50;99.90
10390;DHT22;5241;47.830;12.972;2023-12-20T12:00:03;6.50;99.90
10390;DHT22;5241;47.830;12.972;2023-12-20T12:02:28;6.40;99.90
10390;DHT22;5241;47.830;12.972;2023-12-20T12:04:54;6.40;99.90
10390;DHT22;5241;47.830;12.972;2023-12-20T12:07:21;6.40;99.90
10390;DHT22;5241;47.830;12.972;2023-12-20T12:09:47;6.30;99.90
10390;DHT22;5241;47.830;12.972;2023-12-20T12:12:13;6.30;99.90
10390;DHT22;5241;47.830;12.972;2023-12-20T12:14:39;6.30;99.90
10390;DHT22;5241;47.830;12.972;2023-12-20T12:17:10;6.30;99.90
10390;DHT22;5241;47.830;12.972;2023-12-20T12:19:37;6.30;99.90
10390;DHT22;5241;47.830;12.972;2023-12-20T12:22:07;6.40;99.90
10390;DHT22;5241;47.830;12.972;2023-12-20T12:24:35;6.40;99.90
10390;DHT22;5241;47.830;12.972;2023-12-20T12:27:01;6.40;99.90
10390;DHT22;5241;47.830;12.972;2023-12-20T12:29:27;6.50;99.90
10390;DHT22;5241;47.830;12.972;2023-12-20T12:31:53;6.60;99.90
10390;DHT22;5241;47.830;12.972;2023-12-20T12:34:18;6.70;99.90
10390;DHT22;5241;47.830;12.972;2023-12-20T12:36:44;6.70;99.90
10390;DHT22;5241;47.830;12.972;2023-12-20T12:39:15;6.60;99.90
10390;DHT22;5241;47.830;12.972;2023-12-20T12:41:43;6.70;99.90
10390;DHT22;5241;47.830;12.972;2023-12-20T12:44:08;6.60;99.90
10390;DHT22;5241;47.830;12.972;2023-12-20T12:46:34;6.60;99.90
10390;DHT22;5241;47.830;12.972;2023-12-20T12:49:00;6.70;99.90
10390;DHT22;5241;47.830;12.972;2023-12-20T12:51:26;6.80;99.90
10390;DHT22;5241;47.830;12.972;2023-12-20T12:53:52;6.70;99.90
10390;DHT22;5241;47.830;12.972;2023-12-20T12:56:18;6.80;99.90
10390;DHT22;5241;47.830;12.972;2023-12-20T12:58:43;6.80;99.90
10390;DHT22;5241;47.830;12.972;2023-12-20T13:01:09;6.80;99.90
10390;DHT22;5241;47.830;12.972;2023-12-20T13:03:35;6.80;99.90
10390;DHT22;5241;47.830;12.972;2023-12-20T13:06:01;6.90;99.90
10390;DHT22;5241;47.830;12.972;2023-12-20T13:08:27;6.80;99.90
10390;DHT22;5241;47.830;12.972;2023-12-20T13:10:52;6.70;99.90
10390;DHT22;5241;47.830;12.972;2023-12-20T13:13:18;6.70;99.90
10390;DHT22;5241;47.830;12.972;2023-12-20T13:15:43;6.70;99.90
10390;DHT22;5241;47.830;12.972;2023-12-20T13:18:17;6.70;99.90
10390;DHT22;5241;47.830;12.972;2023-12-20T13:20:44;6.70;99.90
10390;DHT22;5241;47.830;12.972;2023-12-20T13:23:09;6.70;99.90
10390;DHT22;5241;47.830;12.972;2023-12-20T13:25:35;6.60;99.90
10390;DHT22;5241;47.830;12.972;2023-12-20T13:28:00;6.60;99.90
10390;DHT22;5241;47.830;12.972;2023-12-20T13:30:26;6.60;99.90
10390;DHT22;5241;47.830;12.972;2023-12-20T13:32:52;6.50;99.90
10390;DHT22;5241;47.830;12.972;2023-12-20T13:35:17;6.50;99.90
10390;DHT22;5241;47.830;12.972;2023-12-20T13:37:43;6.50;99.90
10390;DHT22;5241;47.830;12.972;2023-12-20T13:40:10;6.50;99.90
10390;DHT22;5241;47.830;12.972;2023-12-20T13:42:35;6.40;99.90
10390;DHT22;5241;47.830;12.972;2023-12-20T13:45:01;6.40;99.90
10390;DHT22;5241;47.830;12.972;2023-12-20T13:47:27;6.40;99.90
10390;DHT22;5241;47.830;12.972;2023-12-20T13:49:52;6.40;99.90
10390;DHT22;5241;47.830;12.972;2023-12-20T13:52:18;6.40;99.90
10390;DHT22;5241;47.830;12.972;2023-12-20T13:54:44;6.30;99.90
10390;DHT22;5241;47.830;12.972;2023-12-20T13:57:09;6.30;99.90
10390;DHT22;5241;47.830;12.972;2023-12-20T13:59:35;6.20;99.90
10390;DHT22;5241;47.830;12.972;2023-12-20T14:02:01;6.20;99.90
10390;DHT22;5241;47.830;12.972;2023-12-20T14:04:28;6.20;99.90
10390;DHT22;5241;47.830;12.972;2023-12-20T14:06:54;6.10;99.90
10390;DHT22;5241;47.830;12.972;2023-12-20T14:09:20;6.00;99.90
10390;DHT22;5241;47.830;12.972;2023-12-20T14:11:45;6.00;99.90
10390;DHT22;5241;47.830;12.972;2023-12-20T14:14:11;6.00;99.90
10390;DHT22;5241;47.830;12.972;2023-12-20T14:16:36;6.00;99.90
10390;DHT22;5241;47.830;12.972;2023-12-20T14:19:03;5.90;99.90
10390;DHT22;5241;47.830;12.972;2023-12-20T14:21:29;5.90;99.90
10390;DHT22;5241;47.830;12.972;2023-12-20T14:23:54;5.90;99.90
10390;DHT22;5241;47.830;12.972;2023-12-20T14:26:20;5.90;99.90
10390;DHT22;5241;47.830;12.972;2023-12-20T14:28:45;5.80;99.90
10390;DHT22;5241;47.830;12.972;2023-12-20T14:31:11;5.80;99.90
10390;DHT22;5241;47.830;12.972;2023-12-20T14:33:37;5.80;99.90
10390;DHT22;5241;47.830;12.972;2023-12-20T14:36:05;5.70;99.90
10390;DHT22;5241;47.830;12.972;2023-12-20T14:38:31;5.70;99.90
10390;DHT22;5241;47.830;12.972;2023-12-20T14:40:57;5.70;99.90
10390;DHT22;5241;47.830;12.972;2023-12-20T14:43:23;5.70;99.90
10390;DHT22;5241;47.830;12.972;2023-12-20T14:45:48;5.70;99.90
10390;DHT22;5241;47.830;12.972;2023-12-20T14:48:15;5.70;99.90
10390;DHT22;5241;47.830;12.972;2023-12-20T14:50:41;5.70;99.90
10390;DHT22;5241;47.830;12.972;2023-12-20T14:53:07;5.70;99.90
10390;DHT22;5241;47.830;12.972;2023-12-20T14:55:33;5.70;99.90
10390;DHT22;5241;47.830;12.972;2023-12-20T14:57:59;5.70;99.90
10390;DHT22;5241;47.830;12.972;2023-12-20T15:00:25;5.60;99.90
10390;DHT22;5241;47.830;12.972;2023-12-20T15:02:51;5.60;99.90
10390;DHT22;5241;47.830;12.972;2023-12-20T15:05:16;5.60;99.90
10390;DHT22;5241;47.830;12.972;2023-12-20T15:07:43;5.50;99.90
10390;DHT22;5241;47.830;12.972;2023-12-20T15:10:09;5.50;99.90
10390;DHT22;5241;47.830;12.972;2023-12-20T15:12:34;5.50;99.90
10390;DHT22;5241;47.830;12.972;2023-12-20T15:15:00;5.40;99.90
10390;DHT22;5241;47.830;12.972;2023-12-20T15:17:25;5.40;99.90
10390;DHT22;5241;47.830;12.972;2023-12-20T15:19:52;5.40;99.90
10390;DHT22;5241;47.830;12.972;2023-12-20T15:22:17;5.40;99.90
10390;DHT22;5241;47.830;12.972;2023-12-20T15:24:43;5.40;99.90
10390;DHT22;5241;47.830;12.972;2023-12-20T15:27:11;5.40;99.90
10390;DHT22;5241;47.830;12.972;2023-12-20T15:29:37;5.40;99.90
10390;DHT22;5241;47.830;12.972;2023-12-20T15:32:02;5.40;99.90
10390;DHT22;5241;47.830;12.972;2023-12-20T15:34:29;5.40;99.90
10390;DHT22;5241;47.830;12.972;2023-12-20T15:36:55;5.40;99.90
10390;DHT22;5241;47.830;12.972;2023-12-20T15:39:20;5.30;99.90
10390;DHT22;5241;47.830;12.972;2023-12-20T15:41:46;5.20;99.90
10390;DHT22;5241;47.830;12.972;2023-12-20T15:44:12;4.90;99.90